Aviation Digital Data Service (ADDS)

Output produced by METARs form (1203 UTC 19 January 2019)
found at http://www.aviationweather.gov/metar/data/
 
METAR text: RCSS 191130Z 09006KT 9999 FEW040 BKN090 19/16 Q1019 NOSIG RMK A3010
Conditions at: RCSS (SUNGSHAN/TAIPEI , TW) observed 1130 UTC 19 January 2019
Temperature: 19.0°C (66°F)
Dewpoint: 16.0°C (61°F) [RH = 83%]
Pressure (altimeter): 30.09 inches Hg (1019.0 mb)
Winds: from the E (90 degrees) at 7 MPH (6 knots; 3.1 m/s)
Visibility: 6 or more miles (10+ km)
Ceiling: 9000 feet AGL
Clouds: few clouds at 4000 feet AGL
broken clouds at 9000 feet AGL
Weather: no significant weather observed at this time

METAR text: RCSS 191100Z 09006KT 9999 FEW040 BKN090 19/16 Q1019 NOSIG RMK A3009
Conditions at: RCSS (SUNGSHAN/TAIPEI , TW) observed 1100 UTC 19 January 2019
Temperature: 19.0°C (66°F)
Dewpoint: 16.0°C (61°F) [RH = 83%]
Pressure (altimeter): 30.09 inches Hg (1019.0 mb)
Winds: from the E (90 degrees) at 7 MPH (6 knots; 3.1 m/s)
Visibility: 6 or more miles (10+ km)
Ceiling: 9000 feet AGL
Clouds: few clouds at 4000 feet AGL
broken clouds at 9000 feet AGL
Weather: no significant weather observed at this time

METAR text: RCSS 191030Z 09005KT 9999 FEW030 BKN080 20/16 Q1019 NOSIG RMK A3009
Conditions at: RCSS (SUNGSHAN/TAIPEI , TW) observed 1030 UTC 19 January 2019
Temperature: 20.0°C (68°F)
Dewpoint: 16.0°C (61°F) [RH = 78%]
Pressure (altimeter): 30.09 inches Hg (1019.0 mb)
Winds: from the E (90 degrees) at 6 MPH (5 knots; 2.6 m/s)
Visibility: 6 or more miles (10+ km)
Ceiling: 8000 feet AGL
Clouds: few clouds at 3000 feet AGL
broken clouds at 8000 feet AGL
Weather: no significant weather observed at this time

METAR text: RCSS 191000Z 10005KT 9999 FEW030 BKN070 20/16 Q1019 NOSIG RMK A3009
Conditions at: RCSS (SUNGSHAN/TAIPEI , TW) observed 1000 UTC 19 January 2019
Temperature: 20.0°C (68°F)
Dewpoint: 16.0°C (61°F) [RH = 78%]
Pressure (altimeter): 30.09 inches Hg (1019.0 mb)
Winds: from the E (100 degrees) at 6 MPH (5 knots; 2.6 m/s)
Visibility: 6 or more miles (10+ km)
Ceiling: 7000 feet AGL
Clouds: few clouds at 3000 feet AGL
broken clouds at 7000 feet AGL
Weather: no significant weather observed at this time

METAR text: RCSS 190930Z 28003KT 9999 FEW025 SCT050 BKN070 21/16 Q1019 NOSIG RMK A3009
Conditions at: RCSS (SUNGSHAN/TAIPEI , TW) observed 0930 UTC 19 January 2019
Temperature: 21.0°C (70°F)
Dewpoint: 16.0°C (61°F) [RH = 73%]
Pressure (altimeter): 30.09 inches Hg (1019.0 mb)
Winds: from the W (280 degrees) at 3 MPH (3 knots; 1.5 m/s)
Visibility: 6 or more miles (10+ km)
Ceiling: 7000 feet AGL
Clouds: few clouds at 2500 feet AGL
scattered clouds at 5000 feet AGL
broken clouds at 7000 feet AGL
Weather: no significant weather observed at this time

METAR text: RCSS 190900Z 29004KT 9999 FEW025 SCT040 BKN060 21/16 Q1019 NOSIG RMK A3009
Conditions at: RCSS (SUNGSHAN/TAIPEI , TW) observed 0900 UTC 19 January 2019
Temperature: 21.0°C (70°F)
Dewpoint: 16.0°C (61°F) [RH = 73%]
Pressure (altimeter): 30.09 inches Hg (1019.0 mb)
Winds: from the WNW (290 degrees) at 5 MPH (4 knots; 2.1 m/s)
Visibility: 6 or more miles (10+ km)
Ceiling: 6000 feet AGL
Clouds: few clouds at 2500 feet AGL
scattered clouds at 4000 feet AGL
broken clouds at 6000 feet AGL
Weather: no significant weather observed at this time

METAR text: RCSS 190830Z 29004KT 9999 FEW025 SCT040 BKN060 21/16 Q1018 NOSIG RMK A3008
Conditions at: RCSS (SUNGSHAN/TAIPEI , TW) observed 0830 UTC 19 January 2019
Temperature: 21.0°C (70°F)
Dewpoint: 16.0°C (61°F) [RH = 73%]
Pressure (altimeter): 30.06 inches Hg (1018.0 mb)
Winds: from the WNW (290 degrees) at 5 MPH (4 knots; 2.1 m/s)
Visibility: 6 or more miles (10+ km)
Ceiling: 6000 feet AGL
Clouds: few clouds at 2500 feet AGL
scattered clouds at 4000 feet AGL
broken clouds at 6000 feet AGL
Weather: no significant weather observed at this time

METAR text: RCSS 190800Z 29004KT 9999 FEW025 SCT040 BKN060 22/15 Q1018 NOSIG RMK A3008
Conditions at: RCSS (SUNGSHAN/TAIPEI , TW) observed 0800 UTC 19 January 2019
Temperature: 22.0°C (72°F)
Dewpoint: 15.0°C (59°F) [RH = 65%]
Pressure (altimeter): 30.06 inches Hg (1018.0 mb)
Winds: from the WNW (290 degrees) at 5 MPH (4 knots; 2.1 m/s)
Visibility: 6 or more miles (10+ km)
Ceiling: 6000 feet AGL
Clouds: few clouds at 2500 feet AGL
scattered clouds at 4000 feet AGL
broken clouds at 6000 feet AGL
Weather: no significant weather observed at this time

METAR text: RCSS 190730Z 29005KT 260V320 9999 FEW025 SCT040 BKN060 22/14 Q1018 NOSIG RMK A3008
Conditions at: RCSS (SUNGSHAN/TAIPEI , TW) observed 0730 UTC 19 January 2019
Temperature: 22.0°C (72°F)
Dewpoint: 14.0°C (57°F) [RH = 60%]
Pressure (altimeter): 30.06 inches Hg (1018.0 mb)
Winds: from the WNW (290 degrees) at 6 MPH (5 knots; 2.6 m/s)
Visibility: 6 or more miles (10+ km)
Ceiling: 6000 feet AGL
Clouds: few clouds at 2500 feet AGL
scattered clouds at 4000 feet AGL
broken clouds at 6000 feet AGL
Weather: no significant weather observed at this time

METAR text: RCSS 190700Z 30005KT 260V320 9999 FEW020 SCT040 BKN060 22/14 Q1018 NOSIG RMK A3007
Conditions at: RCSS (SUNGSHAN/TAIPEI , TW) observed 0700 UTC 19 January 2019
Temperature: 22.0°C (72°F)
Dewpoint: 14.0°C (57°F) [RH = 60%]
Pressure (altimeter): 30.06 inches Hg (1018.0 mb)
Winds: from the WNW (300 degrees) at 6 MPH (5 knots; 2.6 m/s)
Visibility: 6 or more miles (10+ km)
Ceiling: 6000 feet AGL
Clouds: few clouds at 2000 feet AGL
scattered clouds at 4000 feet AGL
broken clouds at 6000 feet AGL
Weather: no significant weather observed at this time

METAR text: RCSS 190630Z 30005KT 260V320 9999 SCT040 BKN070 23/14 Q1018 NOSIG RMK A3008
Conditions at: RCSS (SUNGSHAN/TAIPEI , TW) observed 0630 UTC 19 January 2019
Temperature: 23.0°C (73°F)
Dewpoint: 14.0°C (57°F) [RH = 57%]
Pressure (altimeter): 30.06 inches Hg (1018.0 mb)
Winds: from the WNW (300 degrees) at 6 MPH (5 knots; 2.6 m/s)
Visibility: 6 or more miles (10+ km)
Ceiling: 7000 feet AGL
Clouds: scattered clouds at 4000 feet AGL
broken clouds at 7000 feet AGL
Weather: no significant weather observed at this time

METAR text: RCSS 190606Z 29005KT 9999 FEW030 BKN070 23/15 Q1018 NOSIG RMK A3008
Conditions at: RCSS (SUNGSHAN/TAIPEI , TW) observed 0606 UTC 19 January 2019
Temperature: 23.0°C (73°F)
Dewpoint: 15.0°C (59°F) [RH = 61%]
Pressure (altimeter): 30.06 inches Hg (1018.0 mb)
Winds: from the WNW (290 degrees) at 6 MPH (5 knots; 2.6 m/s)
Visibility: 6 or more miles (10+ km)
Ceiling: 7000 feet AGL
Clouds: few clouds at 3000 feet AGL
broken clouds at 7000 feet AGL
Weather: no significant weather observed at this time

METAR text: RCSS 190600Z 29006KT 9999 FEW030 BKN070 23/15 Q1019 NOSIG RMK 29005KT/R10 A3009
Conditions at: RCSS (SUNGSHAN/TAIPEI , TW) observed 0600 UTC 19 January 2019
Temperature: 23.0°C (73°F)
Dewpoint: 15.0°C (59°F) [RH = 61%]
Pressure (altimeter): 30.09 inches Hg (1019.0 mb)
Winds: from the WNW (290 degrees) at 7 MPH (6 knots; 3.1 m/s)
Visibility: 6 or more miles (10+ km)
Ceiling: 7000 feet AGL
Clouds: few clouds at 3000 feet AGL
broken clouds at 7000 feet AGL
Weather: no significant weather observed at this time

METAR text: RCSS 190530Z 29007KT 250V320 9999 FEW030 BKN070 23/15 Q1019 NOSIG RMK 30006KT/R10 A3010
Conditions at: RCSS (SUNGSHAN/TAIPEI , TW) observed 0530 UTC 19 January 2019
Temperature: 23.0°C (73°F)
Dewpoint: 15.0°C (59°F) [RH = 61%]
Pressure (altimeter): 30.09 inches Hg (1019.0 mb)
Winds: from the WNW (290 degrees) at 8 MPH (7 knots; 3.6 m/s)
Visibility: 6 or more miles (10+ km)
Ceiling: 7000 feet AGL
Clouds: few clouds at 3000 feet AGL
broken clouds at 7000 feet AGL
Weather: no significant weather observed at this time

METAR text: RCSS 190500Z 29007KT 260V320 9999 FEW035 BKN060 BKN250 23/15 Q1019 NOSIG RMK 30006KT/R10 A3011
Conditions at: RCSS (SUNGSHAN/TAIPEI , TW) observed 0500 UTC 19 January 2019
Temperature: 23.0°C (73°F)
Dewpoint: 15.0°C (59°F) [RH = 61%]
Pressure (altimeter): 30.09 inches Hg (1019.0 mb)
Winds: from the WNW (290 degrees) at 8 MPH (7 knots; 3.6 m/s)
Visibility: 6 or more miles (10+ km)
Ceiling: 6000 feet AGL
Clouds: few clouds at 3500 feet AGL
broken clouds at 6000 feet AGL
broken clouds at 25000 feet AGL
Weather: no significant weather observed at this time

METAR text: RCSS 190430Z 28007KT 9999 FEW035 SCT070 BKN250 23/14 Q1020 NOSIG RMK 31005KT/R10 A3012
Conditions at: RCSS (SUNGSHAN/TAIPEI , TW) observed 0430 UTC 19 January 2019
Temperature: 23.0°C (73°F)
Dewpoint: 14.0°C (57°F) [RH = 57%]
Pressure (altimeter): 30.12 inches Hg (1020.0 mb)
Winds: from the W (280 degrees) at 8 MPH (7 knots; 3.6 m/s)
Visibility: 6 or more miles (10+ km)
Ceiling: 25000 feet AGL
Clouds: few clouds at 3500 feet AGL
scattered clouds at 7000 feet AGL
broken clouds at 25000 feet AGL
Weather: no significant weather observed at this time

METAR text: RCSS 190400Z 30005KT 260V350 9999 FEW035 BKN250 24/15 Q1020 NOSIG RMK 30006KT/R10 A3014
Conditions at: RCSS (SUNGSHAN/TAIPEI , TW) observed 0400 UTC 19 January 2019
Temperature: 24.0°C (75°F)
Dewpoint: 15.0°C (59°F) [RH = 57%]
Pressure (altimeter): 30.12 inches Hg (1020.0 mb)
Winds: from the WNW (300 degrees) at 6 MPH (5 knots; 2.6 m/s)
Visibility: 6 or more miles (10+ km)
Ceiling: 25000 feet AGL
Clouds: few clouds at 3500 feet AGL
broken clouds at 25000 feet AGL
Weather: no significant weather observed at this time

METAR text: RCSS 190330Z 29007KT 260V320 9999 FEW035 23/14 Q1021 NOSIG RMK 31006KT/R10 A3015
Conditions at: RCSS (SUNGSHAN/TAIPEI , TW) observed 0330 UTC 19 January 2019
Temperature: 23.0°C (73°F)
Dewpoint: 14.0°C (57°F) [RH = 57%]
Pressure (altimeter): 30.15 inches Hg (1021.0 mb)
Winds: from the WNW (290 degrees) at 8 MPH (7 knots; 3.6 m/s)
Visibility: 6 or more miles (10+ km)
Ceiling: at least 12,000 feet AGL
Clouds: few clouds at 3500 feet AGL
Weather: no significant weather observed at this time

METAR text: RCSS 190327Z 29007KT 260V320 9999 FEW035 23/13 Q1021 NOSIG RMK 30006KT/R10 A3015
Conditions at: RCSS (SUNGSHAN/TAIPEI , TW) observed 0327 UTC 19 January 2019
Temperature: 23.0°C (73°F)
Dewpoint: 13.0°C (55°F) [RH = 53%]
Pressure (altimeter): 30.15 inches Hg (1021.0 mb)
Winds: from the WNW (290 degrees) at 8 MPH (7 knots; 3.6 m/s)
Visibility: 6 or more miles (10+ km)
Ceiling: at least 12,000 feet AGL
Clouds: few clouds at 3500 feet AGL
Weather: no significant weather observed at this time

METAR text: RCSS 190300Z 30004KT 240V340 9999 FEW035 24/13 Q1021 NOSIG RMK A3016
Conditions at: RCSS (SUNGSHAN/TAIPEI , TW) observed 0300 UTC 19 January 2019
Temperature: 24.0°C (75°F)
Dewpoint: 13.0°C (55°F) [RH = 50%]
Pressure (altimeter): 30.15 inches Hg (1021.0 mb)
Winds: from the WNW (300 degrees) at 5 MPH (4 knots; 2.1 m/s)
Visibility: 6 or more miles (10+ km)
Ceiling: at least 12,000 feet AGL
Clouds: few clouds at 3500 feet AGL
Weather: no significant weather observed at this time

METAR text: RCSS 190230Z 28004KT 220V360 9999 FEW035 23/14 Q1021 NOSIG RMK A3017
Conditions at: RCSS (SUNGSHAN/TAIPEI , TW) observed 0230 UTC 19 January 2019
Temperature: 23.0°C (73°F)
Dewpoint: 14.0°C (57°F) [RH = 57%]
Pressure (altimeter): 30.15 inches Hg (1021.0 mb)
Winds: from the W (280 degrees) at 5 MPH (4 knots; 2.1 m/s)
Visibility: 6 or more miles (10+ km)
Ceiling: at least 12,000 feet AGL
Clouds: few clouds at 3500 feet AGL
Weather: no significant weather observed at this time

METAR text: RCSS 190200Z 30003KT 210V340 9999 FEW035 22/13 Q1021 NOSIG RMK A3017
Conditions at: RCSS (SUNGSHAN/TAIPEI , TW) observed 0200 UTC 19 January 2019
Temperature: 22.0°C (72°F)
Dewpoint: 13.0°C (55°F) [RH = 57%]
Pressure (altimeter): 30.15 inches Hg (1021.0 mb)
Winds: from the WNW (300 degrees) at 3 MPH (3 knots; 1.5 m/s)
Visibility: 6 or more miles (10+ km)
Ceiling: at least 12,000 feet AGL
Clouds: few clouds at 3500 feet AGL
Weather: no significant weather observed at this time

METAR text: RCSS 190130Z VRB03KT 9999 FEW030 SCT100 21/13 Q1022 NOSIG RMK A3018
Conditions at: RCSS (SUNGSHAN/TAIPEI , TW) observed 0130 UTC 19 January 2019
Temperature: 21.0°C (70°F)
Dewpoint: 13.0°C (55°F) [RH = 60%]
Pressure (altimeter): 30.18 inches Hg (1022.0 mb)
Winds: variable direction winds at 3 MPH (3 knots; 1.5 m/s)
Visibility: 6 or more miles (10+ km)
Ceiling: at least 12,000 feet AGL
Clouds: few clouds at 3000 feet AGL
scattered clouds at 10000 feet AGL
Weather: no significant weather observed at this time

METAR text: RCSS 190100Z 28003KT 240V330 9999 FEW030 SCT100 20/14 Q1022 NOSIG RMK A3018
Conditions at: RCSS (SUNGSHAN/TAIPEI , TW) observed 0100 UTC 19 January 2019
Temperature: 20.0°C (68°F)
Dewpoint: 14.0°C (57°F) [RH = 68%]
Pressure (altimeter): 30.18 inches Hg (1022.0 mb)
Winds: from the W (280 degrees) at 3 MPH (3 knots; 1.5 m/s)
Visibility: 6 or more miles (10+ km)
Ceiling: at least 12,000 feet AGL
Clouds: few clouds at 3000 feet AGL
scattered clouds at 10000 feet AGL
Weather: no significant weather observed at this time

METAR text: RCSS 190030Z 28003KT 250V320 9999 FEW030 SCT100 19/14 Q1022 NOSIG RMK A3018
Conditions at: RCSS (SUNGSHAN/TAIPEI , TW) observed 0030 UTC 19 January 2019
Temperature: 19.0°C (66°F)
Dewpoint: 14.0°C (57°F) [RH = 73%]
Pressure (altimeter): 30.18 inches Hg (1022.0 mb)
Winds: from the W (280 degrees) at 3 MPH (3 knots; 1.5 m/s)
Visibility: 6 or more miles (10+ km)
Ceiling: at least 12,000 feet AGL
Clouds: few clouds at 3000 feet AGL
scattered clouds at 10000 feet AGL
Weather: no significant weather observed at this time

METAR text: RCSS 190000Z VRB02KT 9999 FEW030 SCT100 18/14 Q1022 NOSIG RMK A3018
Conditions at: RCSS (SUNGSHAN/TAIPEI , TW) observed 0000 UTC 19 January 2019
Temperature: 18.0°C (64°F)
Dewpoint: 14.0°C (57°F) [RH = 77%]
Pressure (altimeter): 30.18 inches Hg (1022.0 mb)
Winds: variable direction winds at 2 MPH (2 knots; 1.0 m/s)
Visibility: 6 or more miles (10+ km)
Ceiling: at least 12,000 feet AGL
Clouds: few clouds at 3000 feet AGL
scattered clouds at 10000 feet AGL
Weather: no significant weather observed at this time

METAR text: RCSS 182330Z VRB02KT 9999 FEW020 SCT100 17/13 Q1021 NOSIG RMK A3017
Conditions at: RCSS (SUNGSHAN/TAIPEI , TW) observed 2330 UTC 18 January 2019
Temperature: 17.0°C (63°F)
Dewpoint: 13.0°C (55°F) [RH = 77%]
Pressure (altimeter): 30.15 inches Hg (1021.0 mb)
Winds: variable direction winds at 2 MPH (2 knots; 1.0 m/s)
Visibility: 6 or more miles (10+ km)
Ceiling: at least 12,000 feet AGL
Clouds: few clouds at 2000 feet AGL
scattered clouds at 10000 feet AGL
Weather: no significant weather observed at this time

METAR text: RCSS 182300Z VRB01KT 9999 FEW020 SCT100 15/12 Q1021 NOSIG RMK A3017
Conditions at: RCSS (SUNGSHAN/TAIPEI , TW) observed 2300 UTC 18 January 2019
Temperature: 15.0°C (59°F)
Dewpoint: 12.0°C (54°F) [RH = 82%]
Pressure (altimeter): 30.15 inches Hg (1021.0 mb)
Winds: variable direction winds at 1 MPH (1 knots; 0.5 m/s)
Visibility: 6 or more miles (10+ km)
Ceiling: at least 12,000 feet AGL
Clouds: few clouds at 2000 feet AGL
scattered clouds at 10000 feet AGL
Weather: no significant weather observed at this time

METAR text: RCSS 182230Z 31002KT 9999 FEW030 BKN100 15/12 Q1021 NOSIG RMK A3017
Conditions at: RCSS (SUNGSHAN/TAIPEI , TW) observed 2230 UTC 18 January 2019
Temperature: 15.0°C (59°F)
Dewpoint: 12.0°C (54°F) [RH = 82%]
Pressure (altimeter): 30.15 inches Hg (1021.0 mb)
Winds: from the NW (310 degrees) at 2 MPH (2 knots; 1.0 m/s)
Visibility: 6 or more miles (10+ km)
Ceiling: 10000 feet AGL
Clouds: few clouds at 3000 feet AGL
broken clouds at 10000 feet AGL
Weather: no significant weather observed at this time

METAR text: RCSS 182200Z 28004KT 9999 FEW030 15/12 Q1021 NOSIG RMK A3016
Conditions at: RCSS (SUNGSHAN/TAIPEI , TW) observed 2200 UTC 18 January 2019
Temperature: 15.0°C (59°F)
Dewpoint: 12.0°C (54°F) [RH = 82%]
Pressure (altimeter): 30.15 inches Hg (1021.0 mb)
Winds: from the W (280 degrees) at 5 MPH (4 knots; 2.1 m/s)
Visibility: 6 or more miles (10+ km)
Ceiling: at least 12,000 feet AGL
Clouds: few clouds at 3000 feet AGL
Weather: no significant weather observed at this time

METAR text: RCSS 182100Z VRB02KT 9999 FEW030 SCT120 16/11 Q1020 NOSIG RMK A3013
Conditions at: RCSS (SUNGSHAN/TAIPEI , TW) observed 2100 UTC 18 January 2019
Temperature: 16.0°C (61°F)
Dewpoint: 11.0°C (52°F) [RH = 72%]
Pressure (altimeter): 30.12 inches Hg (1020.0 mb)
Winds: variable direction winds at 2 MPH (2 knots; 1.0 m/s)
Visibility: 6 or more miles (10+ km)
Ceiling: at least 12,000 feet AGL
Clouds: few clouds at 3000 feet AGL
scattered clouds at 12000 feet AGL
Weather: no significant weather observed at this time

METAR text: RCSS 182000Z VRB02KT 9999 FEW030 14/11 Q1020 NOSIG RMK A3012
Conditions at: RCSS (SUNGSHAN/TAIPEI , TW) observed 2000 UTC 18 January 2019
Temperature: 14.0°C (57°F)
Dewpoint: 11.0°C (52°F) [RH = 82%]
Pressure (altimeter): 30.12 inches Hg (1020.0 mb)
Winds: variable direction winds at 2 MPH (2 knots; 1.0 m/s)
Visibility: 6 or more miles (10+ km)
Ceiling: at least 12,000 feet AGL
Clouds: few clouds at 3000 feet AGL
Weather: no significant weather observed at this time

METAR text: RCSS 181900Z 30002KT 9999 FEW030 15/11 Q1020 NOSIG RMK A3013
Conditions at: RCSS (SUNGSHAN/TAIPEI , TW) observed 1900 UTC 18 January 2019
Temperature: 15.0°C (59°F)
Dewpoint: 11.0°C (52°F) [RH = 77%]
Pressure (altimeter): 30.12 inches Hg (1020.0 mb)
Winds: from the WNW (300 degrees) at 2 MPH (2 knots; 1.0 m/s)
Visibility: 6 or more miles (10+ km)
Ceiling: at least 12,000 feet AGL
Clouds: few clouds at 3000 feet AGL
Weather: no significant weather observed at this time

METAR text: RCSS 181800Z 10003KT 070V130 9999 FEW030 16/11 Q1020 NOSIG RMK A3014
Conditions at: RCSS (SUNGSHAN/TAIPEI , TW) observed 1800 UTC 18 January 2019
Temperature: 16.0°C (61°F)
Dewpoint: 11.0°C (52°F) [RH = 72%]
Pressure (altimeter): 30.12 inches Hg (1020.0 mb)
Winds: from the E (100 degrees) at 3 MPH (3 knots; 1.5 m/s)
Visibility: 6 or more miles (10+ km)
Ceiling: at least 12,000 feet AGL
Clouds: few clouds at 3000 feet AGL
Weather: no significant weather observed at this time

METAR text: RCSS 181700Z 08007KT 9999 FEW030 18/11 Q1021 NOSIG RMK A3015
Conditions at: RCSS (SUNGSHAN/TAIPEI , TW) observed 1700 UTC 18 January 2019
Temperature: 18.0°C (64°F)
Dewpoint: 11.0°C (52°F) [RH = 64%]
Pressure (altimeter): 30.15 inches Hg (1021.0 mb)
Winds: from the E (80 degrees) at 8 MPH (7 knots; 3.6 m/s)
Visibility: 6 or more miles (10+ km)
Ceiling: at least 12,000 feet AGL
Clouds: few clouds at 3000 feet AGL
Weather: no significant weather observed at this time

METAR text: RCSS 181600Z 08007KT 9999 FEW030 18/12 Q1021 NOSIG RMK A3016
Conditions at: RCSS (SUNGSHAN/TAIPEI , TW) observed 1600 UTC 18 January 2019
Temperature: 18.0°C (64°F)
Dewpoint: 12.0°C (54°F) [RH = 68%]
Pressure (altimeter): 30.15 inches Hg (1021.0 mb)
Winds: from the E (80 degrees) at 8 MPH (7 knots; 3.6 m/s)
Visibility: 6 or more miles (10+ km)
Ceiling: at least 12,000 feet AGL
Clouds: few clouds at 3000 feet AGL
Weather: no significant weather observed at this time

METAR text: RCSS 181530Z 08009KT 9999 FEW030 18/11 Q1021 NOSIG RMK A3016
Conditions at: RCSS (SUNGSHAN/TAIPEI , TW) observed 1530 UTC 18 January 2019
Temperature: 18.0°C (64°F)
Dewpoint: 11.0°C (52°F) [RH = 64%]
Pressure (altimeter): 30.15 inches Hg (1021.0 mb)
Winds: from the E (80 degrees) at 10 MPH (9 knots; 4.6 m/s)
Visibility: 6 or more miles (10+ km)
Ceiling: at least 12,000 feet AGL
Clouds: few clouds at 3000 feet AGL
Weather: no significant weather observed at this time

METAR text: RCSS 181500Z 09009KT CAVOK 18/12 Q1021 NOSIG RMK A3016
Conditions at: RCSS (SUNGSHAN/TAIPEI , TW) observed 1500 UTC 18 January 2019
Temperature: 18.0°C (64°F)
Dewpoint: 12.0°C (54°F) [RH = 68%]
Pressure (altimeter): 30.15 inches Hg (1021.0 mb)
Winds: from the E (90 degrees) at 10 MPH (9 knots; 4.6 m/s)
Visibility: 6 or more miles (10+ km)
Ceiling: ceiling and visibility are OK
Clouds: unknown
Weather: no significant weather observed at this time

METAR text: RCSS 181430Z 09010KT CAVOK 17/12 Q1021 NOSIG RMK A3017
Conditions at: RCSS (SUNGSHAN/TAIPEI , TW) observed 1430 UTC 18 January 2019
Temperature: 17.0°C (63°F)
Dewpoint: 12.0°C (54°F) [RH = 72%]
Pressure (altimeter): 30.15 inches Hg (1021.0 mb)
Winds: from the E (90 degrees) at 12 MPH (10 knots; 5.1 m/s)
Visibility: 6 or more miles (10+ km)
Ceiling: ceiling and visibility are OK
Clouds: unknown
Weather: no significant weather observed at this time

METAR text: RCSS 181400Z 09010KT CAVOK 18/12 Q1021 NOSIG RMK A3016
Conditions at: RCSS (SUNGSHAN/TAIPEI , TW) observed 1400 UTC 18 January 2019
Temperature: 18.0°C (64°F)
Dewpoint: 12.0°C (54°F) [RH = 68%]
Pressure (altimeter): 30.15 inches Hg (1021.0 mb)
Winds: from the E (90 degrees) at 12 MPH (10 knots; 5.1 m/s)
Visibility: 6 or more miles (10+ km)
Ceiling: ceiling and visibility are OK
Clouds: unknown
Weather: no significant weather observed at this time

METAR text: RCSS 181330Z 09011KT 9999 FEW030 18/11 Q1021 NOSIG RMK A3016
Conditions at: RCSS (SUNGSHAN/TAIPEI , TW) observed 1330 UTC 18 January 2019
Temperature: 18.0°C (64°F)
Dewpoint: 11.0°C (52°F) [RH = 64%]
Pressure (altimeter): 30.15 inches Hg (1021.0 mb)
Winds: from the E (90 degrees) at 13 MPH (11 knots; 5.7 m/s)
Visibility: 6 or more miles (10+ km)
Ceiling: at least 12,000 feet AGL
Clouds: few clouds at 3000 feet AGL
Weather: no significant weather observed at this time

METAR text: RCSS 181300Z 09012KT 9999 FEW020 18/11 Q1021 NOSIG RMK A3017
Conditions at: RCSS (SUNGSHAN/TAIPEI , TW) observed 1300 UTC 18 January 2019
Temperature: 18.0°C (64°F)
Dewpoint: 11.0°C (52°F) [RH = 64%]
Pressure (altimeter): 30.15 inches Hg (1021.0 mb)
Winds: from the E (90 degrees) at 14 MPH (12 knots; 6.2 m/s)
Visibility: 6 or more miles (10+ km)
Ceiling: at least 12,000 feet AGL
Clouds: few clouds at 2000 feet AGL
Weather: no significant weather observed at this time

METAR text: RCSS 181230Z 08013KT 9999 FEW030 18/11 Q1021 NOSIG RMK A3017
Conditions at: RCSS (SUNGSHAN/TAIPEI , TW) observed 1230 UTC 18 January 2019
Temperature: 18.0°C (64°F)
Dewpoint: 11.0°C (52°F) [RH = 64%]
Pressure (altimeter): 30.15 inches Hg (1021.0 mb)
Winds: from the E (80 degrees) at 15 MPH (13 knots; 6.7 m/s)
Visibility: 6 or more miles (10+ km)
Ceiling: at least 12,000 feet AGL
Clouds: few clouds at 3000 feet AGL
Weather: no significant weather observed at this time

METAR text: RCSS 181200Z 09013KT 9999 FEW025 18/11 Q1021 NOSIG RMK A3017
Conditions at: RCSS (SUNGSHAN/TAIPEI , TW) observed 1200 UTC 18 January 2019
Temperature: 18.0°C (64°F)
Dewpoint: 11.0°C (52°F) [RH = 64%]
Pressure (altimeter): 30.15 inches Hg (1021.0 mb)
Winds: from the E (90 degrees) at 15 MPH (13 knots; 6.7 m/s)
Visibility: 6 or more miles (10+ km)
Ceiling: at least 12,000 feet AGL
Clouds: few clouds at 2500 feet AGL
Weather: no significant weather observed at this time

METAR text: RCSS 181130Z 08013KT 9999 FEW025 18/11 Q1021 NOSIG RMK A3017
Conditions at: RCSS (SUNGSHAN/TAIPEI , TW) observed 1130 UTC 18 January 2019
Temperature: 18.0°C (64°F)
Dewpoint: 11.0°C (52°F) [RH = 64%]
Pressure (altimeter): 30.15 inches Hg (1021.0 mb)
Winds: from the E (80 degrees) at 15 MPH (13 knots; 6.7 m/s)
Visibility: 6 or more miles (10+ km)
Ceiling: at least 12,000 feet AGL
Clouds: few clouds at 2500 feet AGL
Weather: no significant weather observed at this time

METAR text: RCSS 181100Z 08013KT 9999 FEW025 18/11 Q1021 NOSIG RMK A3017
Conditions at: RCSS (SUNGSHAN/TAIPEI , TW) observed 1100 UTC 18 January 2019
Temperature: 18.0°C (64°F)
Dewpoint: 11.0°C (52°F) [RH = 64%]
Pressure (altimeter): 30.15 inches Hg (1021.0 mb)
Winds: from the E (80 degrees) at 15 MPH (13 knots; 6.7 m/s)
Visibility: 6 or more miles (10+ km)
Ceiling: at least 12,000 feet AGL
Clouds: few clouds at 2500 feet AGL
Weather: no significant weather observed at this time

METAR text: RCSS 181030Z 08012KT 9999 FEW025 SCT045 19/11 Q1021 NOSIG RMK A3017
Conditions at: RCSS (SUNGSHAN/TAIPEI , TW) observed 1030 UTC 18 January 2019
Temperature: 19.0°C (66°F)
Dewpoint: 11.0°C (52°F) [RH = 60%]
Pressure (altimeter): 30.15 inches Hg (1021.0 mb)
Winds: from the E (80 degrees) at 14 MPH (12 knots; 6.2 m/s)
Visibility: 6 or more miles (10+ km)
Ceiling: at least 12,000 feet AGL
Clouds: few clouds at 2500 feet AGL
scattered clouds at 4500 feet AGL
Weather: no significant weather observed at this time

METAR text: RCSS 181000Z 08012KT 9999 FEW025 18/11 Q1021 NOSIG RMK A3017
Conditions at: RCSS (SUNGSHAN/TAIPEI , TW) observed 1000 UTC 18 January 2019
Temperature: 18.0°C (64°F)
Dewpoint: 11.0°C (52°F) [RH = 64%]
Pressure (altimeter): 30.15 inches Hg (1021.0 mb)
Winds: from the E (80 degrees) at 14 MPH (12 knots; 6.2 m/s)
Visibility: 6 or more miles (10+ km)
Ceiling: at least 12,000 feet AGL
Clouds: few clouds at 2500 feet AGL
Weather: no significant weather observed at this time

METAR text: RCSS 180930Z 09012KT 9999 FEW028 SCT045 19/11 Q1021 NOSIG RMK A3016
Conditions at: RCSS (SUNGSHAN/TAIPEI , TW) observed 0930 UTC 18 January 2019
Temperature: 19.0°C (66°F)
Dewpoint: 11.0°C (52°F) [RH = 60%]
Pressure (altimeter): 30.15 inches Hg (1021.0 mb)
Winds: from the E (90 degrees) at 14 MPH (12 knots; 6.2 m/s)
Visibility: 6 or more miles (10+ km)
Ceiling: at least 12,000 feet AGL
Clouds: few clouds at 2800 feet AGL
scattered clouds at 4500 feet AGL
Weather: no significant weather observed at this time

METAR text: RCSS 180900Z 09012KT 9999 FEW028 SCT045 20/12 Q1021 NOSIG RMK A3015
Conditions at: RCSS (SUNGSHAN/TAIPEI , TW) observed 0900 UTC 18 January 2019
Temperature: 20.0°C (68°F)
Dewpoint: 12.0°C (54°F) [RH = 60%]
Pressure (altimeter): 30.15 inches Hg (1021.0 mb)
Winds: from the E (90 degrees) at 14 MPH (12 knots; 6.2 m/s)
Visibility: 6 or more miles (10+ km)
Ceiling: at least 12,000 feet AGL
Clouds: few clouds at 2800 feet AGL
scattered clouds at 4500 feet AGL
Weather: no significant weather observed at this time

METAR text: RCSS 180830Z 09013KT 9999 FEW028 SCT045 21/12 Q1021 NOSIG RMK A3015
Conditions at: RCSS (SUNGSHAN/TAIPEI , TW) observed 0830 UTC 18 January 2019
Temperature: 21.0°C (70°F)
Dewpoint: 12.0°C (54°F) [RH = 56%]
Pressure (altimeter): 30.15 inches Hg (1021.0 mb)
Winds: from the E (90 degrees) at 15 MPH (13 knots; 6.7 m/s)
Visibility: 6 or more miles (10+ km)
Ceiling: at least 12,000 feet AGL
Clouds: few clouds at 2800 feet AGL
scattered clouds at 4500 feet AGL
Weather: no significant weather observed at this time

METAR text: RCSS 180800Z 10013KT 9999 FEW028 SCT040 21/13 Q1020 NOSIG RMK A3014
Conditions at: RCSS (SUNGSHAN/TAIPEI , TW) observed 0800 UTC 18 January 2019
Temperature: 21.0°C (70°F)
Dewpoint: 13.0°C (55°F) [RH = 60%]
Pressure (altimeter): 30.12 inches Hg (1020.0 mb)
Winds: from the E (100 degrees) at 15 MPH (13 knots; 6.7 m/s)
Visibility: 6 or more miles (10+ km)
Ceiling: at least 12,000 feet AGL
Clouds: few clouds at 2800 feet AGL
scattered clouds at 4000 feet AGL
Weather: no significant weather observed at this time

METAR text: RCSS 180730Z 10015KT 9999 FEW028 BKN040 22/13 Q1020 NOSIG RMK A3013
Conditions at: RCSS (SUNGSHAN/TAIPEI , TW) observed 0730 UTC 18 January 2019
Temperature: 22.0°C (72°F)
Dewpoint: 13.0°C (55°F) [RH = 57%]
Pressure (altimeter): 30.12 inches Hg (1020.0 mb)
Winds: from the E (100 degrees) at 17 MPH (15 knots; 7.7 m/s)
Visibility: 6 or more miles (10+ km)
Ceiling: 4000 feet AGL
Clouds: few clouds at 2800 feet AGL
broken clouds at 4000 feet AGL
Weather: no significant weather observed at this time

METAR text: RCSS 180700Z 10015KT 9999 FEW030 BKN045 22/13 Q1020 WS R10 NOSIG RMK A3013
Conditions at: RCSS (SUNGSHAN/TAIPEI , TW) observed 0700 UTC 18 January 2019
Temperature: 22.0°C (72°F)
Dewpoint: 13.0°C (55°F) [RH = 57%]
Pressure (altimeter): 30.12 inches Hg (1020.0 mb)
Winds: from the E (100 degrees) at 17 MPH (15 knots; 7.7 m/s)
Visibility: 6 or more miles (10+ km)
Ceiling: 4500 feet AGL
Clouds: few clouds at 3000 feet AGL
broken clouds at 4500 feet AGL
Weather: no significant weather observed at this time

METAR text: RCSS 180652Z 10017KT 9999 FEW030 SCT045 22/12 Q1020 WS R10 NOSIG RMK A3013
Conditions at: RCSS (SUNGSHAN/TAIPEI , TW) observed 0652 UTC 18 January 2019
Temperature: 22.0°C (72°F)
Dewpoint: 12.0°C (54°F) [RH = 53%]
Pressure (altimeter): 30.12 inches Hg (1020.0 mb)
Winds: from the E (100 degrees) at 20 MPH (17 knots; 8.7 m/s)
Visibility: 6 or more miles (10+ km)
Ceiling: at least 12,000 feet AGL
Clouds: few clouds at 3000 feet AGL
scattered clouds at 4500 feet AGL
Weather: no significant weather observed at this time

METAR text: RCSS 180630Z 09017KT 9999 FEW030 SCT045 22/12 Q1020 NOSIG RMK A3013
Conditions at: RCSS (SUNGSHAN/TAIPEI , TW) observed 0630 UTC 18 January 2019
Temperature: 22.0°C (72°F)
Dewpoint: 12.0°C (54°F) [RH = 53%]
Pressure (altimeter): 30.12 inches Hg (1020.0 mb)
Winds: from the E (90 degrees) at 20 MPH (17 knots; 8.7 m/s)
Visibility: 6 or more miles (10+ km)
Ceiling: at least 12,000 feet AGL
Clouds: few clouds at 3000 feet AGL
scattered clouds at 4500 feet AGL
Weather: no significant weather observed at this time

METAR text: RCSS 180605Z 10017KT 9999 FEW030 SCT045 22/12 Q1021 WS R10 NOSIG RMK A3015
Conditions at: RCSS (SUNGSHAN/TAIPEI , TW) observed 0605 UTC 18 January 2019
Temperature: 22.0°C (72°F)
Dewpoint: 12.0°C (54°F) [RH = 53%]
Pressure (altimeter): 30.15 inches Hg (1021.0 mb)
Winds: from the E (100 degrees) at 20 MPH (17 knots; 8.7 m/s)
Visibility: 6 or more miles (10+ km)
Ceiling: at least 12,000 feet AGL
Clouds: few clouds at 3000 feet AGL
scattered clouds at 4500 feet AGL
Weather: no significant weather observed at this time

METAR text: RCSS 180600Z 10017KT 9999 FEW030 SCT045 22/12 Q1020 NOSIG RMK A3014
Conditions at: RCSS (SUNGSHAN/TAIPEI , TW) observed 0600 UTC 18 January 2019
Temperature: 22.0°C (72°F)
Dewpoint: 12.0°C (54°F) [RH = 53%]
Pressure (altimeter): 30.12 inches Hg (1020.0 mb)
Winds: from the E (100 degrees) at 20 MPH (17 knots; 8.7 m/s)
Visibility: 6 or more miles (10+ km)
Ceiling: at least 12,000 feet AGL
Clouds: few clouds at 3000 feet AGL
scattered clouds at 4500 feet AGL
Weather: no significant weather observed at this time

METAR text: RCSS 180530Z 10016KT 9999 FEW030 23/12 Q1021 WS R10 NOSIG RMK A3015
Conditions at: RCSS (SUNGSHAN/TAIPEI , TW) observed 0530 UTC 18 January 2019
Temperature: 23.0°C (73°F)
Dewpoint: 12.0°C (54°F) [RH = 50%]
Pressure (altimeter): 30.15 inches Hg (1021.0 mb)
Winds: from the E (100 degrees) at 18 MPH (16 knots; 8.2 m/s)
Visibility: 6 or more miles (10+ km)
Ceiling: at least 12,000 feet AGL
Clouds: few clouds at 3000 feet AGL
Weather: no significant weather observed at this time

METAR text: RCSS 180516Z 09018KT 9999 FEW030 SCT045 22/12 Q1021 WS R10 NOSIG RMK A3016
Conditions at: RCSS (SUNGSHAN/TAIPEI , TW) observed 0516 UTC 18 January 2019
Temperature: 22.0°C (72°F)
Dewpoint: 12.0°C (54°F) [RH = 53%]
Pressure (altimeter): 30.15 inches Hg (1021.0 mb)
Winds: from the E (90 degrees) at 21 MPH (18 knots; 9.3 m/s)
Visibility: 6 or more miles (10+ km)
Ceiling: at least 12,000 feet AGL
Clouds: few clouds at 3000 feet AGL
scattered clouds at 4500 feet AGL
Weather: no significant weather observed at this time

METAR text: RCSS 180500Z 09015KT 9999 FEW030 SCT045 22/11 Q1021 NOSIG RMK A3017
Conditions at: RCSS (SUNGSHAN/TAIPEI , TW) observed 0500 UTC 18 January 2019
Temperature: 22.0°C (72°F)
Dewpoint: 11.0°C (52°F) [RH = 50%]
Pressure (altimeter): 30.15 inches Hg (1021.0 mb)
Winds: from the E (90 degrees) at 17 MPH (15 knots; 7.7 m/s)
Visibility: 6 or more miles (10+ km)
Ceiling: at least 12,000 feet AGL
Clouds: few clouds at 3000 feet AGL
scattered clouds at 4500 feet AGL
Weather: no significant weather observed at this time

METAR text: RCSS 180430Z 09016KT 9999 FEW030 SCT045 21/12 Q1022 NOSIG RMK A3020
Conditions at: RCSS (SUNGSHAN/TAIPEI , TW) observed 0430 UTC 18 January 2019
Temperature: 21.0°C (70°F)
Dewpoint: 12.0°C (54°F) [RH = 56%]
Pressure (altimeter): 30.18 inches Hg (1022.0 mb)
Winds: from the E (90 degrees) at 18 MPH (16 knots; 8.2 m/s)
Visibility: 6 or more miles (10+ km)
Ceiling: at least 12,000 feet AGL
Clouds: few clouds at 3000 feet AGL
scattered clouds at 4500 feet AGL
Weather: no significant weather observed at this time

METAR text: RCSS 180400Z 09018KT 9999 FEW040 21/12 Q1023 WS R10 NOSIG RMK A3021
Conditions at: RCSS (SUNGSHAN/TAIPEI , TW) observed 0400 UTC 18 January 2019
Temperature: 21.0°C (70°F)
Dewpoint: 12.0°C (54°F) [RH = 56%]
Pressure (altimeter): 30.21 inches Hg (1023.0 mb)
Winds: from the E (90 degrees) at 21 MPH (18 knots; 9.3 m/s)
Visibility: 6 or more miles (10+ km)
Ceiling: at least 12,000 feet AGL
Clouds: few clouds at 4000 feet AGL
Weather: no significant weather observed at this time

METAR text: RCSS 180330Z 09019KT 9999 FEW030 21/12 Q1023 WS R10 NOSIG RMK A3023
Conditions at: RCSS (SUNGSHAN/TAIPEI , TW) observed 0330 UTC 18 January 2019
Temperature: 21.0°C (70°F)
Dewpoint: 12.0°C (54°F) [RH = 56%]
Pressure (altimeter): 30.21 inches Hg (1023.0 mb)
Winds: from the E (90 degrees) at 22 MPH (19 knots; 9.8 m/s)
Visibility: 6 or more miles (10+ km)
Ceiling: at least 12,000 feet AGL
Clouds: few clouds at 3000 feet AGL
Weather: no significant weather observed at this time

METAR text: RCSS 180300Z 09020G30KT 9999 FEW030 20/12 Q1024 WS R10 NOSIG RMK A3025
Conditions at: RCSS (SUNGSHAN/TAIPEI , TW) observed 0300 UTC 18 January 2019
Temperature: 20.0°C (68°F)
Dewpoint: 12.0°C (54°F) [RH = 60%]
Pressure (altimeter): 30.24 inches Hg (1024.0 mb)
Winds: from the E (90 degrees) at 23 MPH (20 knots; 10.3 m/s)
gusting to 34 MPH (30 knots; 15.4 m/s)
Visibility: 6 or more miles (10+ km)
Ceiling: at least 12,000 feet AGL
Clouds: few clouds at 3000 feet AGL
Weather: no significant weather observed at this time

METAR text: RCSS 180235Z 08018KT 9999 FEW025 21/11 Q1024 WS R10 NOSIG RMK A3025
Conditions at: RCSS (SUNGSHAN/TAIPEI , TW) observed 0235 UTC 18 January 2019
Temperature: 21.0°C (70°F)
Dewpoint: 11.0°C (52°F) [RH = 53%]
Pressure (altimeter): 30.24 inches Hg (1024.0 mb)
Winds: from the E (80 degrees) at 21 MPH (18 knots; 9.3 m/s)
Visibility: 6 or more miles (10+ km)
Ceiling: at least 12,000 feet AGL
Clouds: few clouds at 2500 feet AGL
Weather: no significant weather observed at this time

METAR text: RCSS 180230Z 09018KT 9999 FEW025 20/11 Q1024 NOSIG RMK A3026
Conditions at: RCSS (SUNGSHAN/TAIPEI , TW) observed 0230 UTC 18 January 2019
Temperature: 20.0°C (68°F)
Dewpoint: 11.0°C (52°F) [RH = 56%]
Pressure (altimeter): 30.24 inches Hg (1024.0 mb)
Winds: from the E (90 degrees) at 21 MPH (18 knots; 9.3 m/s)
Visibility: 6 or more miles (10+ km)
Ceiling: at least 12,000 feet AGL
Clouds: few clouds at 2500 feet AGL
Weather: no significant weather observed at this time

METAR text: RCSS 180200Z 09016KT 050V110 9999 FEW020 SCT050 20/11 Q1025 NOSIG RMK A3027
Conditions at: RCSS (SUNGSHAN/TAIPEI , TW) observed 0200 UTC 18 January 2019
Temperature: 20.0°C (68°F)
Dewpoint: 11.0°C (52°F) [RH = 56%]
Pressure (altimeter): 30.27 inches Hg (1025.0 mb)
Winds: from the E (90 degrees) at 18 MPH (16 knots; 8.2 m/s)
Visibility: 6 or more miles (10+ km)
Ceiling: at least 12,000 feet AGL
Clouds: few clouds at 2000 feet AGL
scattered clouds at 5000 feet AGL
Weather: no significant weather observed at this time

METAR text: RCSS 180130Z 09014KT 9999 FEW020 SCT050 18/11 Q1025 NOSIG RMK A3028
Conditions at: RCSS (SUNGSHAN/TAIPEI , TW) observed 0130 UTC 18 January 2019
Temperature: 18.0°C (64°F)
Dewpoint: 11.0°C (52°F) [RH = 64%]
Pressure (altimeter): 30.27 inches Hg (1025.0 mb)
Winds: from the E (90 degrees) at 16 MPH (14 knots; 7.2 m/s)
Visibility: 6 or more miles (10+ km)
Ceiling: at least 12,000 feet AGL
Clouds: few clouds at 2000 feet AGL
scattered clouds at 5000 feet AGL
Weather: no significant weather observed at this time

METAR text: RCSS 180100Z 10014KT 9999 FEW020 BKN050 17/11 Q1025 NOSIG RMK A3029
Conditions at: RCSS (SUNGSHAN/TAIPEI , TW) observed 0100 UTC 18 January 2019
Temperature: 17.0°C (63°F)
Dewpoint: 11.0°C (52°F) [RH = 68%]
Pressure (altimeter): 30.27 inches Hg (1025.0 mb)
Winds: from the E (100 degrees) at 16 MPH (14 knots; 7.2 m/s)
Visibility: 6 or more miles (10+ km)
Ceiling: 5000 feet AGL
Clouds: few clouds at 2000 feet AGL
broken clouds at 5000 feet AGL
Weather: no significant weather observed at this time

METAR text: RCSS 180030Z 10014KT 9999 FEW020 SCT050 17/10 Q1025 NOSIG RMK A3028
Conditions at: RCSS (SUNGSHAN/TAIPEI , TW) observed 0030 UTC 18 January 2019
Temperature: 17.0°C (63°F)
Dewpoint: 10.0°C (50°F) [RH = 63%]
Pressure (altimeter): 30.27 inches Hg (1025.0 mb)
Winds: from the E (100 degrees) at 16 MPH (14 knots; 7.2 m/s)
Visibility: 6 or more miles (10+ km)
Ceiling: at least 12,000 feet AGL
Clouds: few clouds at 2000 feet AGL
scattered clouds at 5000 feet AGL
Weather: no significant weather observed at this time

Forecast for: RCSS (SUNGSHAN/TAIPEI , TW)
Text: TAF RCSS 191100Z 1912/2012 09005KT 9999 FEW016 BKN032
Forecast period: 1200 UTC 19 January 2019 to 0600 UTC 20 January 2019
Forecast type: FROM: standard forecast or significant change
Winds: from the E (90 degrees) at 6 MPH (5 knots; 2.6 m/s)
Visibility: 6 or more miles 10+ km)
Ceiling: 3200 feet AGL
Clouds: few clouds at 1600 feet AGL
broken clouds at 3200 feet AGL
Weather: no significant weather forecast for this period
Text: TEMPO 2001/2006 08010KT FEW010 BKN020
Forecast period: 0100 to 0600 UTC 20 January 2019
Forecast type: TEMPORARY: The following changes expected for less than half the time period
Winds: from the E (80 degrees) at 12 MPH (10 knots; 5.1 m/s)
Visibility: missing
Ceiling: 2000 feet AGL
Clouds: few clouds at 1000 feet AGL
broken clouds at 2000 feet AGL
Weather: no significant weather forecast for this period
Text: BECMG 2006/2008 09012KT FEW012 BKN023
Forecast period: 0600 to 1200 UTC 20 January 2019
Forecast type: BECOMING: Conditions expected to become as follows by 0800 UTC 20 January 2019
Winds: from the E (90 degrees) at 14 MPH (12 knots; 6.2 m/s)
Visibility: 6 or more miles 10+ km)
Ceiling: 2300 feet AGL
Clouds: few clouds at 1200 feet AGL
broken clouds at 2300 feet AGL
Weather: no significant weather forecast for this period
Text: TEMPO 2008/2012 09017KT FEW007 BKN015
Forecast period: 0800 to 1200 UTC 20 January 2019
Forecast type: TEMPORARY: The following changes expected for less than half the time period
Winds: from the E (90 degrees) at 20 MPH (17 knots; 8.7 m/s)
Visibility: missing
Ceiling: 1500 feet AGL
Clouds: few clouds at 700 feet AGL
broken clouds at 1500 feet AGL
Weather: no significant weather forecast for this period